createdAt,value
2019-03-10T00:02:31.086Z,97583.64
2019-03-10T00:05:19.933Z,97576.51
2019-03-10T00:08:08.852Z,97582.59
2019-03-10T00:14:05.465Z,97501.94
2019-03-10T00:16:54.277Z,97571.34
2019-03-10T00:22:50.825Z,97322.84
2019-03-10T00:25:39.619Z,97559.20
2019-03-10T00:28:47.463Z,97563.09
2019-03-10T00:31:36.251Z,97563.29
2019-03-10T00:34:25.070Z,97566.77
2019-03-10T00:37:06.969Z,97568.53
2019-03-10T00:40:34.485Z,97570.66
2019-03-10T00:44:02.837Z,97571.83
2019-03-10T00:47:03.963Z,97578.00
2019-03-10T00:50:13.713Z,97575.14
2019-03-10T00:53:02.641Z,97562.41
2019-03-10T00:55:51.617Z,97557.98
2019-03-10T00:58:40.523Z,97541.22
2019-03-10T01:01:29.337Z,97534.59
2019-03-10T01:07:12.911Z,97536.45
2019-03-10T01:10:01.806Z,97515.80
2019-03-10T01:12:50.596Z,97519.28
2019-03-10T01:15:39.980Z,97520.12
2019-03-10T01:18:28.947Z,97520.97
2019-03-10T01:21:38.673Z,97519.16
2019-03-10T01:24:27.475Z,97524.64
2019-03-10T01:27:16.293Z,97529.23
2019-03-10T01:30:26.007Z,97522.16
2019-03-10T01:33:35.735Z,97531.76
2019-03-10T01:36:17.186Z,97530.07
2019-03-10T01:42:05.430Z,97506.27
2019-03-10T01:44:54.232Z,97493.44
2019-03-10T01:47:43.046Z,97275.30
2019-03-10T01:50:31.922Z,97484.11
2019-03-10T01:53:25.570Z,97488.69
2019-03-10T01:56:11.457Z,97485.44
2019-03-10T01:59:00.306Z,97485.03
2019-03-10T02:01:49.174Z,97465.61
2019-03-10T02:04:37.959Z,97220.55
2019-03-10T02:07:26.757Z,97450.40
2019-03-10T02:10:15.576Z,97442.84
2019-03-10T02:13:04.380Z,97433.28
2019-03-10T02:15:53.197Z,97419.95
2019-03-10T02:18:41.994Z,97420.75
2019-03-10T02:21:30.816Z,97406.38
2019-03-10T02:24:23.846Z,97409.59
2019-03-10T02:27:10.157Z,97402.89
2019-03-10T02:29:58.960Z,97391.00
2019-03-10T02:32:47.782Z,97379.70
2019-03-10T02:35:29.922Z,97381.03
2019-03-10T02:38:18.713Z,97377.67
2019-03-10T02:41:07.531Z,97380.03
2019-03-10T02:43:56.329Z,97370.27
2019-03-10T02:46:45.145Z,97361.75
2019-03-10T02:49:33.948Z,97131.58
2019-03-10T02:52:22.759Z,97356.28
2019-03-10T02:55:11.578Z,97136.69
2019-03-10T02:58:00.378Z,97337.22
2019-03-10T03:00:49.200Z,97330.65
2019-03-10T03:03:37.990Z,97325.59
2019-03-10T03:06:26.809Z,97318.87
2019-03-10T03:09:15.609Z,97314.37
2019-03-10T03:12:04.434Z,97312.19
2019-03-10T03:14:53.250Z,97308.80
2019-03-10T03:17:42.041Z,97302.09
2019-03-10T03:20:30.864Z,97292.63
2019-03-10T03:23:19.657Z,97282.86
2019-03-10T03:26:08.480Z,97198.32
2019-03-10T03:28:57.276Z,97268.18
2019-03-10T03:31:46.102Z,97267.73
2019-03-10T03:34:34.897Z,97257.13
2019-03-10T03:37:16.281Z,97256.77
2019-03-10T03:40:25.994Z,97248.78
2019-03-10T03:43:14.808Z,97249.55
2019-03-10T03:46:03.613Z,97075.64
2019-03-10T03:48:52.428Z,97218.11
2019-03-10T03:54:48.977Z,97223.60
2019-03-10T03:57:37.773Z,97206.91
2019-03-10T04:00:26.590Z,97192.19
2019-03-10T04:03:15.385Z,97195.85
2019-03-10T04:06:04.209Z,97183.47
2019-03-10T04:08:53.015Z,97178.21
2019-03-10T04:11:41.823Z,97175.51
2019-03-10T04:14:30.636Z,97025.44
2019-03-10T04:17:19.443Z,97157.37
2019-03-10T04:20:29.146Z,97166.66
2019-03-10T04:23:17.962Z,97155.72
2019-03-10T04:26:06.773Z,97016.71
2019-03-10T04:28:55.576Z,97140.22
2019-03-10T04:31:44.370Z,97139.44
2019-03-10T04:34:33.229Z,97129.59
2019-03-10T04:37:14.758Z,97115.39
2019-03-10T04:43:18.550Z,97100.19
2019-03-10T04:46:07.421Z,97099.37
2019-03-10T04:48:56.239Z,96894.17
2019-03-10T04:51:45.024Z,97093.70
2019-03-10T04:54:52.941Z,97084.05
2019-03-10T05:03:46.871Z,97073.58
2019-03-10T05:06:35.691Z,97072.09
2019-03-10T05:09:24.488Z,96926.50
2019-03-10T05:12:13.302Z,97053.88
2019-03-10T05:15:02.125Z,97046.63
2019-03-10T05:17:50.953Z,97049.63
2019-03-10T05:20:39.776Z,97014.04
2019-03-10T05:23:47.997Z,97038.47
2019-03-10T05:26:36.881Z,97031.33
2019-03-10T05:29:25.701Z,97027.47
2019-03-10T05:32:14.547Z,96807.37
2019-03-10T05:38:22.630Z,97011.59
2019-03-10T05:41:11.503Z,97005.28
2019-03-10T05:44:00.318Z,96857.94
2019-03-10T05:46:49.114Z,96983.83
2019-03-10T05:49:37.944Z,96984.88
2019-03-10T05:52:26.734Z,96982.03
2019-03-10T05:55:15.576Z,96979.38
2019-03-10T05:58:04.389Z,96972.30
2019-03-10T06:00:53.166Z,96972.31
2019-03-10T06:03:41.959Z,96959.73
2019-03-10T06:06:31.125Z,96954.16
2019-03-10T06:09:19.925Z,96952.24
2019-03-10T06:12:08.731Z,96814.31
2019-03-10T06:14:57.802Z,96937.23
2019-03-10T06:17:46.625Z,96930.20
2019-03-10T06:26:37.918Z,96911.97
2019-03-10T06:29:26.742Z,96898.17
2019-03-10T06:32:15.534Z,96888.67
2019-03-10T06:38:12.369Z,96796.76
2019-03-10T06:41:01.170Z,96858.55
2019-03-10T06:43:49.984Z,96855.28
2019-03-10T06:46:38.778Z,96858.36
2019-03-10T06:49:27.594Z,96844.17
2019-03-10T06:52:35.416Z,96831.00
2019-03-10T06:55:24.236Z,96816.83
2019-03-10T06:58:13.035Z,96804.12
2019-03-10T07:01:01.850Z,96797.97
2019-03-10T07:03:50.643Z,96791.86
2019-03-10T07:06:39.471Z,96776.40
2019-03-10T07:09:28.254Z,96681.30
2019-03-10T07:15:30.259Z,96747.39
2019-03-10T07:21:13.074Z,96724.59
2019-03-10T07:24:01.890Z,96703.94
2019-03-10T07:26:50.681Z,96702.22
2019-03-10T07:29:58.519Z,96694.34
2019-03-10T07:36:15.755Z,96451.67
2019-03-10T07:39:01.910Z,96683.13
2019-03-10T07:45:19.146Z,96673.19
2019-03-10T07:48:26.971Z,96474.75
2019-03-10T07:51:34.805Z,96659.70
2019-03-10T07:54:23.374Z,96659.92
2019-03-10T07:57:31.231Z,96656.89
2019-03-10T08:00:39.062Z,96487.98
2019-03-10T08:03:46.880Z,96639.69
2019-03-10T08:06:54.730Z,96624.23
2019-03-10T08:13:01.656Z,96614.22
2019-03-10T08:16:09.496Z,96612.02
2019-03-10T08:19:17.336Z,96601.69
2019-03-10T08:25:34.625Z,96597.03
2019-03-10T08:28:42.449Z,96578.89
2019-03-10T08:31:50.295Z,96576.25
2019-03-10T08:34:38.878Z,96560.72
2019-03-10T08:37:46.695Z,96554.58
2019-03-10T08:40:47.338Z,96549.00
2019-03-10T08:43:55.159Z,96544.25
2019-03-10T08:47:02.996Z,96322.25
2019-03-10T08:50:10.823Z,96291.52
2019-03-10T08:53:18.660Z,96521.89
2019-03-10T08:56:26.490Z,96530.23
2019-03-10T09:02:30.693Z,96520.76
2019-03-10T09:05:19.247Z,96491.31
2019-03-10T09:08:27.090Z,96506.96
2019-03-10T09:11:34.908Z,96497.78
2019-03-10T09:14:42.754Z,96494.04
2019-03-10T09:20:59.983Z,96412.78
2019-03-10T09:23:48.545Z,96456.35
2019-03-10T09:26:56.387Z,96474.69
2019-03-10T09:30:04.283Z,96398.55
2019-03-10T09:33:12.122Z,96208.42
2019-03-10T09:36:19.945Z,96428.06
2019-03-10T09:42:21.956Z,96434.76
2019-03-10T09:45:29.865Z,96448.53
2019-03-10T09:48:37.702Z,96432.36
2019-03-10T09:51:45.522Z,96196.59
2019-03-10T09:54:53.382Z,96394.76
2019-03-10T09:58:01.220Z,96400.27
2019-03-10T10:04:04.816Z,96398.84
2019-03-10T10:07:12.678Z,96395.48
2019-03-10T10:13:19.867Z,96394.72
2019-03-10T10:16:27.693Z,96388.91
2019-03-10T10:22:31.077Z,96380.55
2019-03-10T10:25:38.893Z,96382.66
2019-03-10T10:28:46.730Z,96367.86
2019-03-10T10:31:54.574Z,96358.92
2019-03-10T10:35:02.425Z,96344.39
2019-03-10T10:41:12.470Z,96319.20
2019-03-10T10:44:20.306Z,96316.41
2019-03-10T10:47:28.126Z,96313.04
2019-03-10T10:50:35.970Z,96312.34
2019-03-10T10:59:49.055Z,96289.72
2019-03-10T11:05:51.959Z,96276.90
2019-03-10T11:08:59.799Z,96275.78
2019-03-10T11:12:07.619Z,96094.09
2019-03-10T11:15:15.466Z,96268.27
2019-03-10T11:18:23.297Z,96263.95
2019-03-10T11:30:49.578Z,96263.33
2019-03-10T11:33:57.394Z,96255.38
2019-03-10T11:36:45.988Z,96238.45
2019-03-10T11:39:29.595Z,96248.58
2019-03-10T11:42:37.688Z,96225.06
2019-03-10T11:45:45.561Z,96216.66
2019-03-10T11:48:53.438Z,96229.55
2019-03-10T11:52:01.338Z,96228.23
2019-03-10T11:55:09.323Z,96236.78
2019-03-10T11:58:17.221Z,96249.20
2019-03-10T12:01:25.050Z,96249.73
2019-03-10T12:04:32.892Z,96258.18
2019-03-10T12:07:40.716Z,96275.53
2019-03-10T12:10:29.528Z,96063.41
2019-03-10T12:13:18.323Z,96304.21
2019-03-10T12:16:07.141Z,96254.03
2019-03-10T12:18:55.957Z,96252.10
2019-03-10T12:21:44.827Z,96246.48
2019-03-10T12:24:33.644Z,96215.31
2019-03-10T12:27:22.437Z,96202.33
2019-03-10T12:30:32.169Z,95955.67
2019-03-10T12:33:21.022Z,96180.58
2019-03-10T12:36:09.821Z,96170.94
2019-03-10T12:38:49.560Z,96145.55
2019-03-10T12:41:38.424Z,96145.31
2019-03-10T12:44:27.549Z,96129.41
2019-03-10T12:47:16.351Z,96129.03
2019-03-10T12:50:24.547Z,95892.17
2019-03-10T12:53:13.354Z,96135.14
2019-03-10T12:56:02.173Z,96118.88
2019-03-10T12:58:50.994Z,96120.20
2019-03-10T13:01:39.795Z,96117.86
2019-03-10T13:04:28.625Z,95989.17
2019-03-10T13:07:17.422Z,96144.03
2019-03-10T13:10:06.254Z,96141.11
2019-03-10T13:12:55.043Z,96135.89
2019-03-10T13:15:43.901Z,96158.69
2019-03-10T13:18:32.729Z,96151.54
2019-03-10T13:21:21.876Z,96187.42
2019-03-10T13:24:10.724Z,95883.30
2019-03-10T13:26:59.543Z,96117.87
2019-03-10T13:29:48.353Z,96032.23
2019-03-10T13:35:31.307Z,96158.23
2019-03-10T13:38:20.105Z,96144.19
2019-03-10T13:41:02.587Z,96146.92
2019-03-10T13:43:51.525Z,96148.22
2019-03-10T13:46:40.311Z,96161.74
2019-03-10T13:49:48.218Z,96168.98
2019-03-10T13:52:37.022Z,96154.95
2019-03-10T13:55:25.852Z,96184.27
2019-03-10T13:58:14.657Z,96190.22
2019-03-10T14:04:00.217Z,96187.27
2019-03-10T14:06:49.686Z,96204.55
2019-03-10T14:09:38.536Z,96213.77
2019-03-10T14:12:27.589Z,96226.14
2019-03-10T14:21:25.891Z,96275.76
2019-03-10T14:24:14.705Z,96256.44
2019-03-10T14:27:03.501Z,96269.44
2019-03-10T14:29:52.406Z,96195.48
2019-03-10T14:32:41.196Z,96233.42
2019-03-10T14:35:23.356Z,96248.73
2019-03-10T14:41:20.100Z,96250.63
2019-03-10T14:44:08.916Z,96256.70
2019-03-10T14:46:57.709Z,96251.02
2019-03-10T14:49:46.531Z,96233.27
2019-03-10T14:52:35.611Z,96283.50
2019-03-10T14:55:24.463Z,96322.33
2019-03-10T14:58:13.273Z,96104.68
2019-03-10T15:01:02.104Z,96297.11
2019-03-10T15:03:50.880Z,96322.59
2019-03-10T15:06:39.699Z,96110.48
2019-03-10T15:09:28.491Z,96329.17
2019-03-10T15:12:17.311Z,96351.53
2019-03-10T15:15:27.022Z,96318.34
2019-03-10T15:18:15.833Z,96101.13
2019-03-10T15:21:23.727Z,96329.63
2019-03-10T15:24:12.621Z,96345.48
2019-03-10T15:27:01.415Z,96337.87
2019-03-10T15:29:50.255Z,96340.78
2019-03-10T15:32:39.066Z,96387.14
2019-03-10T15:35:27.869Z,96380.39
2019-03-10T15:38:09.407Z,96366.74
2019-03-10T15:40:58.286Z,96395.56
2019-03-10T15:43:47.111Z,96325.56
2019-03-10T15:46:35.934Z,96401.31
2019-03-10T15:49:24.733Z,96407.61
2019-03-10T15:52:13.568Z,96201.19
2019-03-10T15:55:02.367Z,96254.80
2019-03-10T15:57:51.196Z,96419.63
2019-03-10T16:00:40.062Z,96442.41
2019-03-10T16:03:28.950Z,96448.83
2019-03-10T16:06:17.761Z,96432.39
2019-03-10T16:09:06.579Z,96498.74
2019-03-10T16:11:55.379Z,96450.02
2019-03-10T16:14:44.228Z,96516.18
2019-03-10T16:17:33.045Z,96499.44
2019-03-10T16:20:21.870Z,96499.03
2019-03-10T16:23:10.699Z,96566.72
2019-03-10T16:25:59.525Z,96341.48
2019-03-10T16:28:48.342Z,96531.34
2019-03-10T16:31:37.117Z,96569.09
2019-03-10T16:34:18.456Z,96552.47
2019-03-10T16:37:07.269Z,96546.50
2019-03-10T16:39:56.064Z,96606.67
2019-03-10T16:42:44.869Z,96605.64
2019-03-10T16:45:33.796Z,96612.84
2019-03-10T16:48:41.742Z,96620.09
2019-03-10T16:54:38.299Z,96357.56
2019-03-10T16:57:27.095Z,96697.17
2019-03-10T17:03:30.802Z,96670.79
2019-03-10T17:06:19.611Z,96679.44
2019-03-10T17:09:27.736Z,96467.50
2019-03-10T17:12:16.569Z,96749.87
2019-03-10T17:15:26.300Z,96737.02
2019-03-10T17:18:15.120Z,96747.23
2019-03-10T17:21:03.944Z,96731.81
2019-03-10T17:23:52.752Z,96581.36
2019-03-10T17:26:41.549Z,96750.58
2019-03-10T17:29:30.346Z,96540.71
2019-03-10T17:32:19.176Z,96790.15
2019-03-10T17:38:23.016Z,96810.03
2019-03-10T17:41:11.823Z,96816.70
2019-03-10T17:44:00.650Z,96825.16
2019-03-10T17:46:49.463Z,96816.64
2019-03-10T17:49:38.283Z,96570.78
2019-03-10T17:52:27.093Z,96897.38
2019-03-10T17:55:35.211Z,96864.42
2019-03-10T17:58:24.030Z,96903.53
2019-03-10T18:01:12.849Z,96639.23
2019-03-10T18:04:01.631Z,96927.73
2019-03-10T18:06:50.464Z,96827.55
2019-03-10T18:09:39.261Z,96969.86
2019-03-10T18:12:28.078Z,96693.49
2019-03-10T18:18:32.078Z,97016.33
2019-03-10T18:21:20.913Z,96765.94
2019-03-10T18:24:02.912Z,97029.02
2019-03-10T18:26:51.713Z,96982.72
2019-03-10T18:29:40.531Z,97051.53
2019-03-10T18:32:29.330Z,96793.14
2019-03-10T18:35:18.148Z,97073.84
2019-03-10T18:38:06.943Z,96914.61
2019-03-10T18:40:55.822Z,97092.01
2019-03-10T18:43:44.636Z,97111.71
2019-03-10T18:46:33.457Z,97119.08
2019-03-10T18:49:22.515Z,97123.23
2019-03-10T18:52:11.342Z,97134.36
2019-03-10T18:55:00.237Z,97144.92
2019-03-10T18:57:51.034Z,97146.34
2019-03-10T19:00:39.834Z,97138.92
2019-03-10T19:03:29.063Z,97147.70
2019-03-10T19:06:17.854Z,97168.33
2019-03-10T19:15:36.700Z,97170.60
2019-03-10T19:21:19.546Z,97189.06
2019-03-10T19:24:01.164Z,97185.31
2019-03-10T19:26:49.970Z,97182.25
2019-03-10T19:29:38.783Z,97199.58
2019-03-10T19:32:27.594Z,97201.29
2019-03-10T19:35:35.501Z,97202.39
2019-03-10T19:38:24.287Z,97215.66
2019-03-10T19:41:13.099Z,97213.44
2019-03-10T19:44:21.440Z,96959.35
2019-03-10T19:47:11.609Z,97228.22
2019-03-10T19:50:00.421Z,97235.78
2019-03-10T19:52:49.220Z,97245.55
2019-03-10T19:55:38.038Z,97230.69
2019-03-10T19:58:26.844Z,97236.93
2019-03-10T20:01:15.659Z,97245.92
2019-03-10T20:04:04.811Z,97257.53
2019-03-10T20:06:53.625Z,97258.83
2019-03-10T20:09:42.425Z,97081.87
2019-03-10T20:12:31.232Z,97268.11
2019-03-10T20:15:40.934Z,97292.03
2019-03-10T20:18:29.760Z,97291.52
2019-03-10T20:21:18.545Z,97306.40
2019-03-10T20:23:59.835Z,97307.96
2019-03-10T20:26:48.630Z,97319.06
2019-03-10T20:29:37.454Z,97331.80
2019-03-10T20:32:26.253Z,97355.92
2019-03-10T20:35:15.128Z,97354.51
2019-03-10T20:38:03.952Z,97346.26
2019-03-10T20:40:52.769Z,97357.45
2019-03-10T20:43:41.564Z,97362.53
2019-03-10T20:46:30.422Z,97053.39
2019-03-10T20:49:19.317Z,97366.41
2019-03-10T20:52:08.111Z,97222.78
2019-03-10T20:54:56.930Z,97375.67
2019-03-10T20:57:45.734Z,97378.69
2019-03-10T21:00:34.537Z,97381.72
2019-03-10T21:03:23.334Z,97376.62
2019-03-10T21:06:12.152Z,97392.34
2019-03-10T21:09:00.947Z,97099.11
2019-03-10T21:11:49.758Z,97398.20
2019-03-10T21:14:57.603Z,97218.14
2019-03-10T21:17:46.529Z,97406.78
2019-03-10T21:20:35.351Z,97426.30
2019-03-10T21:23:17.389Z,97421.61
2019-03-10T21:26:06.203Z,97442.44
2019-03-10T21:28:55.006Z,97426.68
2019-03-10T21:31:43.827Z,97427.08
2019-03-10T21:34:32.624Z,97440.73
2019-03-10T21:37:21.445Z,97436.03
2019-03-10T21:40:31.203Z,97432.65
2019-03-10T21:43:20.074Z,97443.28
2019-03-10T21:46:08.866Z,97458.95
2019-03-10T21:51:52.276Z,97455.16
2019-03-10T21:54:41.133Z,97512.44
2019-03-10T21:57:29.906Z,97525.64
2019-03-10T22:03:34.620Z,97536.20
2019-03-10T22:06:23.420Z,97252.95
2019-03-10T22:09:12.233Z,97524.56
2019-03-10T22:12:01.020Z,97523.38
2019-03-10T22:15:08.861Z,97533.66
2019-03-10T22:17:50.506Z,97538.70
2019-03-10T22:20:39.304Z,97535.30
2019-03-10T22:23:28.115Z,97505.59
2019-03-10T22:26:16.906Z,97532.77
2019-03-10T22:29:05.730Z,97525.58
2019-03-10T22:31:54.529Z,97530.70
2019-03-10T22:34:43.354Z,97547.63
2019-03-10T22:37:32.144Z,97549.34
2019-03-10T22:40:20.961Z,97560.28
2019-03-10T22:43:09.752Z,97539.14
2019-03-10T22:45:58.577Z,97277.19
2019-03-10T22:48:47.395Z,97568.77
2019-03-10T22:51:36.198Z,97565.03
2019-03-10T22:54:25.342Z,97580.23
2019-03-10T22:57:14.204Z,97580.28
2019-03-10T23:03:18.348Z,97584.06
2019-03-10T23:06:07.132Z,97573.90
2019-03-10T23:08:55.937Z,97319.03
2019-03-10T23:11:44.743Z,97581.52
2019-03-10T23:14:33.568Z,97582.42
2019-03-10T23:17:22.360Z,97316.17
2019-03-10T23:20:30.506Z,97374.14
2019-03-10T23:26:06.493Z,97575.12
2019-03-10T23:28:55.541Z,97575.13
2019-03-10T23:32:03.389Z,97581.44
2019-03-10T23:34:52.179Z,97581.13
2019-03-10T23:37:41.015Z,97289.77
2019-03-10T23:40:29.813Z,97550.52
2019-03-10T23:43:18.609Z,97249.42
2019-03-10T23:46:07.432Z,97567.48
2019-03-10T23:48:56.231Z,97564.93
2019-03-10T23:51:45.026Z,97566.13
2019-03-10T23:54:33.825Z,97245.08
2019-03-10T23:57:22.632Z,97562.77
